Flight ASXC01

  • Submitted By: Rafal Piotrowski
  • Departure Airport: Gdansk im. Lecha Walesy (EPGD)
  • Arrival Airport: Krakow im. Jana Pawla II (EPKK)
  • Aircraft: A320-214 (SP-GSA)
  • Flight Time: 1.09
  • Date Submitted: 11/27/2015
  • Route: IRLUN N133 NEGUV M66 KUKAM
  • Status: Rejected
Flight Details
Gross Revenue:
(135 load / € 125.00 per unit
€ 16,875.00
Fuel Cost:
(6280 fuel used @ 0.45 / unit)
€ 2,826.00

Additional Log Information:

View Log

[2015/09/30 07:20:00]
Flight IATA:ASXC01
Pilot Number:ASX0102
Company ICAO:ASX
Aircraft Type:A320-214
PAX:135
Aircraft Registration:SP-GSA
Departing Airport: EPGD
Destination Airport: EPKK
Alternate Airport:EPRZ
Online: VATSIM
Route:IRLUN N133 NEGUV M66 KUKAM
Flight Level:31000
07:20 Zero fuel Weight: 120164 Lbs, Fuel Weight: 14327 Lbs
07:20 VATSIM:EPGD 280000Z 19006KT 160V230 CAVOK 00/M02 Q1012
07:20 VATSIM:EPKK 280000Z 06005KT 030V130 6000 OVC008 M00/M02 Q1013
07:30 Parking Brakes off
07:30 Com1 Freq=122.80
07:40 VR= 151 Knots
07:40 V2= 160 Knots
07:40 Take-off
07:40 Take off Weight: 143034 Lbs
07:40 Wind: 183? @ 006 Knots Heading: 291?
07:40 POS N54? 22? 38?? E018? 28? 00??
07:40 N11 90 N12 90
07:40 Flaps:2 at 160 Knots
07:40 Gear Up: 159 Knots
07:41 Flaps:0 at 191 Knots
07:54 TOC
07:54 Fuel Weight: 11062 Lb
07:55 Wind:112?@044 Knots Heading: 158? GroundSpeed: 429 Knots Altitude 30997 ft
08:10 Wind:106?@056 Knots Heading: 156? Ground Speed: 422 Knots Altitude 31030 ft
08:11 TOD
08:11 Fuel Weight: 9407 Lb
08:25 Wind:138?@013 Knots Heading: 095? Ground Speed: 207 Knots Altitude 3697 ft
08:26 Flaps:1 at 201 Knots
08:27 Flaps:3 at 165 Knots
08:27 Flaps:4 at 162 Knots
08:28 Flaps:5 at 162 Knots
08:30 Gear Down: 160 Knots
08:32 TouchDown:Rate -596 ft/min Speed: 136 Knots
08:32 VATSIM:EPKK 280130Z 10006KT 6000 OVC006 M01/M02 Q1012
08:32 Land
08:32 Wind:099?@006 Knots
08:32 Heading: 259?
08:32 Flight Duration: 00:52
08:32 Landing Weight: 137431 Lbs
08:32 POS N50? 04? 39?? E019? 47? 01??
08:39 Parking brakes on
08:39 Block to Block Duration: 01:09
08:39 Final Fuel: 8046 Lbls
08:39 Spent Fuel: 6280 Lbls
08:39 Flight Length: 295 NM
08:39 TOD Land Length: 94 NM

Route Map